sensor_id;sensor_type;location;lat;lon;timestamp;pressure;altitude;pressure_sealevel;temperature;humidity
71907;BME280;59781;52.090;5.030;2023-02-12T00:00:45;103800.88;;;8.03;95.26
71907;BME280;59781;52.090;5.030;2023-02-12T00:03:11;103791.84;;;8.04;95.22
71907;BME280;59781;52.090;5.030;2023-02-12T00:05:39;103803.34;;;7.91;96.03
71907;BME280;59781;52.090;5.030;2023-02-12T00:08:07;103800.41;;;7.95;96.15
71907;BME280;59781;52.090;5.030;2023-02-12T00:10:39;103791.34;;;7.98;96.90
71907;BME280;59781;52.090;5.030;2023-02-12T00:13:08;103792.91;;;7.85;96.39
71907;BME280;59781;52.090;5.030;2023-02-12T00:15:41;103800.03;;;7.86;96.43
71907;BME280;59781;52.090;5.030;2023-02-12T00:18:07;103797.69;;;7.80;97.11
71907;BME280;59781;52.090;5.030;2023-02-12T00:20:33;103798.47;;;7.82;96.48
71907;BME280;59781;52.090;5.030;2023-02-12T00:22:59;103793.78;;;7.85;96.99
71907;BME280;59781;52.090;5.030;2023-02-12T00:25:24;103789.16;;;7.89;96.38
71907;BME280;59781;52.090;5.030;2023-02-12T00:27:50;103797.28;;;7.70;97.38
71907;BME280;59781;52.090;5.030;2023-02-12T00:30:16;103795.31;;;7.73;97.65
71907;BME280;59781;52.090;5.030;2023-02-12T00:32:44;103795.66;;;8.00;96.77
71907;BME280;59781;52.090;5.030;2023-02-12T00:35:12;103801.16;;;7.82;96.64
71907;BME280;59781;52.090;5.030;2023-02-12T00:37:38;103795.13;;;7.76;97.67
71907;BME280;59781;52.090;5.030;2023-02-12T00:40:05;103793.41;;;7.75;97.69
71907;BME280;59781;52.090;5.030;2023-02-12T00:42:31;103791.53;;;7.60;98.70
71907;BME280;59781;52.090;5.030;2023-02-12T00:44:57;103795.25;;;7.58;99.23
71907;BME280;59781;52.090;5.030;2023-02-12T00:47:22;103788.53;;;7.49;99.31
71907;BME280;59781;52.090;5.030;2023-02-12T00:49:48;103788.53;;;7.49;99.54
71907;BME280;59781;52.090;5.030;2023-02-12T00:52:14;103788.69;;;7.46;99.89
71907;BME280;59781;52.090;5.030;2023-02-12T00:54:40;103783.75;;;7.38;99.96
71907;BME280;59781;52.090;5.030;2023-02-12T00:57:05;103783.78;;;7.54;99.62
71907;BME280;59781;52.090;5.030;2023-02-12T00:59:31;103783.56;;;7.59;98.79
71907;BME280;59781;52.090;5.030;2023-02-12T01:02:00;103784.53;;;7.58;98.76
71907;BME280;59781;52.090;5.030;2023-02-12T01:04:26;103785.31;;;7.60;98.79
71907;BME280;59781;52.090;5.030;2023-02-12T01:06:53;103789.38;;;7.67;97.92
71907;BME280;59781;52.090;5.030;2023-02-12T01:09:19;103784.19;;;7.81;97.26
71907;BME280;59781;52.090;5.030;2023-02-12T01:11:46;103782.53;;;7.79;97.85
71907;BME280;59781;52.090;5.030;2023-02-12T01:14:12;103790.66;;;7.77;97.00
71907;BME280;59781;52.090;5.030;2023-02-12T01:16:38;103792.63;;;7.73;96.93
71907;BME280;59781;52.090;5.030;2023-02-12T01:19:04;103796.47;;;7.85;96.84
71907;BME280;59781;52.090;5.030;2023-02-12T01:21:32;103792.06;;;7.84;97.24
71907;BME280;59781;52.090;5.030;2023-02-12T01:24:00;103784.16;;;7.98;96.02
71907;BME280;59781;52.090;5.030;2023-02-12T01:26:28;103784.06;;;8.00;95.19
71907;BME280;59781;52.090;5.030;2023-02-12T01:29:01;103789.59;;;8.30;93.48
71907;BME280;59781;52.090;5.030;2023-02-12T01:31:34;103785.56;;;8.39;92.77
71907;BME280;59781;52.090;5.030;2023-02-12T01:34:04;103788.63;;;8.48;92.04
71907;BME280;59781;52.090;5.030;2023-02-12T01:36:32;103794.69;;;8.52;92.75
71907;BME280;59781;52.090;5.030;2023-02-12T01:38:58;103791.53;;;8.44;91.63
71907;BME280;59781;52.090;5.030;2023-02-12T01:41:33;103796.00;;;8.27;92.70
71907;BME280;59781;52.090;5.030;2023-02-12T01:44:28;103794.63;;;8.03;95.04
71907;BME280;59781;52.090;5.030;2023-02-12T01:47:01;103790.66;;;7.77;96.50
71907;BME280;59781;52.090;5.030;2023-02-12T01:49:34;103794.91;;;7.81;95.91
71907;BME280;59781;52.090;5.030;2023-02-12T01:52:15;103796.03;;;7.77;96.31
71907;BME280;59781;52.090;5.030;2023-02-12T01:54:46;103795.00;;;7.80;96.45
71907;BME280;59781;52.090;5.030;2023-02-12T01:57:17;103791.34;;;7.98;95.62
71907;BME280;59781;52.090;5.030;2023-02-12T01:59:48;103785.81;;;8.01;94.53
71907;BME280;59781;52.090;5.030;2023-02-12T02:02:19;103791.75;;;7.90;95.08
71907;BME280;59781;52.090;5.030;2023-02-12T02:04:51;103787.09;;;8.27;93.86
71907;BME280;59781;52.090;5.030;2023-02-12T02:07:22;103791.63;;;8.09;93.99
71907;BME280;59781;52.090;5.030;2023-02-12T02:09:48;103785.59;;;7.88;95.05
71907;BME280;59781;52.090;5.030;2023-02-12T02:12:15;103783.78;;;7.89;95.55
71907;BME280;59781;52.090;5.030;2023-02-12T02:15:02;103788.00;;;8.10;94.64
71907;BME280;59781;52.090;5.030;2023-02-12T02:26:55;103781.66;;;8.11;92.77
71907;BME280;59781;52.090;5.030;2023-02-12T02:30:12;103788.22;;;8.05;93.05
71907;BME280;59781;52.090;5.030;2023-02-12T02:33:19;103778.94;;;8.28;92.13
71907;BME280;59781;52.090;5.030;2023-02-12T02:38:49;103781.88;;;8.24;92.47
71907;BME280;59781;52.090;5.030;2023-02-12T02:41:46;103774.13;;;8.02;92.75
71907;BME280;59781;52.090;5.030;2023-02-12T02:44:30;103774.81;;;8.05;92.24
71907;BME280;59781;52.090;5.030;2023-02-12T02:47:06;103770.66;;;8.65;89.22
71907;BME280;59781;52.090;5.030;2023-02-12T02:49:53;103771.53;;;8.49;89.63
71907;BME280;59781;52.090;5.030;2023-02-12T02:52:34;103767.38;;;8.59;89.61
71907;BME280;59781;52.090;5.030;2023-02-12T02:55:10;103767.78;;;7.87;92.62
71907;BME280;59781;52.090;5.030;2023-02-12T03:00:30;103776.31;;;8.11;92.36
71907;BME280;59781;52.090;5.030;2023-02-12T03:03:08;103770.66;;;8.16;92.33
71907;BME280;59781;52.090;5.030;2023-02-12T03:05:48;103765.50;;;7.95;93.46
71907;BME280;59781;52.090;5.030;2023-02-12T03:08:24;103766.53;;;8.10;91.58
71907;BME280;59781;52.090;5.030;2023-02-12T03:11:17;103763.13;;;8.71;88.39
71907;BME280;59781;52.090;5.030;2023-02-12T03:13:53;103759.59;;;8.71;89.39
71907;BME280;59781;52.090;5.030;2023-02-12T03:16:44;103763.53;;;8.32;90.18
71907;BME280;59781;52.090;5.030;2023-02-12T03:19:22;103759.28;;;8.28;89.88
71907;BME280;59781;52.090;5.030;2023-02-12T03:25:21;103751.56;;;8.22;91.28
71907;BME280;59781;52.090;5.030;2023-02-12T03:28:05;103757.09;;;8.19;91.81
71907;BME280;59781;52.090;5.030;2023-02-12T03:30:54;103758.88;;;8.02;91.13
71907;BME280;59781;52.090;5.030;2023-02-12T03:33:38;103759.34;;;8.11;92.26
71907;BME280;59781;52.090;5.030;2023-02-12T03:36:43;103754.66;;;7.81;93.21
71907;BME280;59781;52.090;5.030;2023-02-12T03:39:33;103752.19;;;8.27;91.00
71907;BME280;59781;52.090;5.030;2023-02-12T03:42:28;103752.09;;;8.28;90.33
71907;BME280;59781;52.090;5.030;2023-02-12T03:48:49;103762.19;;;8.08;90.24
71907;BME280;59781;52.090;5.030;2023-02-12T03:51:32;103758.00;;;8.02;89.82
71907;BME280;59781;52.090;5.030;2023-02-12T03:54:02;103763.19;;;8.05;89.55
71907;BME280;59781;52.090;5.030;2023-02-12T03:56:56;103766.81;;;7.88;90.18
71907;BME280;59781;52.090;5.030;2023-02-12T03:59:28;103768.00;;;7.83;90.75
71907;BME280;59781;52.090;5.030;2023-02-12T04:01:58;103767.78;;;7.87;90.46
71907;BME280;59781;52.090;5.030;2023-02-12T04:04:25;103770.84;;;7.80;91.55
71907;BME280;59781;52.090;5.030;2023-02-12T04:06:52;103779.75;;;8.13;89.50
71907;BME280;59781;52.090;5.030;2023-02-12T04:09:21;103772.59;;;7.81;90.71
71907;BME280;59781;52.090;5.030;2023-02-12T04:18:11;103785.03;;;7.82;91.39
71907;BME280;59781;52.090;5.030;2023-02-12T04:27:01;103791.44;;;7.44;92.92
71907;BME280;59781;52.090;5.030;2023-02-12T04:32:50;103790.97;;;8.21;89.02
71907;BME280;59781;52.090;5.030;2023-02-12T04:35:43;103796.78;;;7.96;89.54
71907;BME280;59781;52.090;5.030;2023-02-12T04:38:33;103794.75;;;7.67;91.57
71907;BME280;59781;52.090;5.030;2023-02-12T04:41:07;103801.44;;;7.75;89.85
71907;BME280;59781;52.090;5.030;2023-02-12T04:43:35;103801.22;;;7.63;90.98
71907;BME280;59781;52.090;5.030;2023-02-12T04:46:03;103804.66;;;8.17;88.36
71907;BME280;59781;52.090;5.030;2023-02-12T04:48:30;103809.47;;;8.10;88.97
71907;BME280;59781;52.090;5.030;2023-02-12T04:50:56;103800.28;;;8.14;88.64
71907;BME280;59781;52.090;5.030;2023-02-12T04:53:22;103806.34;;;8.35;87.23
71907;BME280;59781;52.090;5.030;2023-02-12T04:55:47;103808.69;;;8.08;88.95
71907;BME280;59781;52.090;5.030;2023-02-12T04:58:15;103806.22;;;8.03;89.41
71907;BME280;59781;52.090;5.030;2023-02-12T05:00:41;103801.31;;;7.79;90.63
71907;BME280;59781;52.090;5.030;2023-02-12T05:03:07;103798.94;;;7.72;91.71
71907;BME280;59781;52.090;5.030;2023-02-12T05:05:33;103796.72;;;7.63;92.28
71907;BME280;59781;52.090;5.030;2023-02-12T05:08:01;103802.25;;;7.60;91.92
71907;BME280;59781;52.090;5.030;2023-02-12T05:10:27;103807.53;;;7.79;91.86
71907;BME280;59781;52.090;5.030;2023-02-12T05:12:54;103811.50;;;8.05;89.09
71907;BME280;59781;52.090;5.030;2023-02-12T05:15:20;103802.41;;;7.74;90.77
71907;BME280;59781;52.090;5.030;2023-02-12T05:17:46;103797.78;;;7.61;91.30
71907;BME280;59781;52.090;5.030;2023-02-12T05:20:12;103805.72;;;7.62;91.32
71907;BME280;59781;52.090;5.030;2023-02-12T05:22:39;103804.84;;;7.44;93.00
71907;BME280;59781;52.090;5.030;2023-02-12T05:25:05;103801.41;;;7.77;90.92
71907;BME280;59781;52.090;5.030;2023-02-12T05:27:31;103803.75;;;7.83;90.98
71907;BME280;59781;52.090;5.030;2023-02-12T05:29:56;103799.81;;;8.06;88.52
71907;BME280;59781;52.090;5.030;2023-02-12T05:32:23;103803.94;;;7.96;89.29
71907;BME280;59781;52.090;5.030;2023-02-12T05:34:49;103807.84;;;7.73;90.62
71907;BME280;59781;52.090;5.030;2023-02-12T05:37:14;103809.06;;;7.50;91.79
71907;BME280;59781;52.090;5.030;2023-02-12T05:39:40;103807.06;;;7.54;91.93
71907;BME280;59781;52.090;5.030;2023-02-12T05:42:06;103801.31;;;7.44;92.48
71907;BME280;59781;52.090;5.030;2023-02-12T05:44:32;103813.22;;;7.56;92.99
71907;BME280;59781;52.090;5.030;2023-02-12T05:46:57;103815.59;;;7.44;93.05
71907;BME280;59781;52.090;5.030;2023-02-12T05:49:23;103811.72;;;7.33;94.17
71907;BME280;59781;52.090;5.030;2023-02-12T05:51:49;103808.53;;;7.25;94.50
71907;BME280;59781;52.090;5.030;2023-02-12T05:54:15;103809.09;;;7.31;94.19
71907;BME280;59781;52.090;5.030;2023-02-12T05:56:43;103820.00;;;7.28;95.42
71907;BME280;59781;52.090;5.030;2023-02-12T05:59:17;103808.25;;;7.31;94.92
71907;BME280;59781;52.090;5.030;2023-02-12T06:01:47;103812.34;;;7.21;96.21
71907;BME280;59781;52.090;5.030;2023-02-12T06:04:20;103816.03;;;7.18;95.40
71907;BME280;59781;52.090;5.030;2023-02-12T06:06:49;103813.81;;;7.09;95.95
71907;BME280;59781;52.090;5.030;2023-02-12T06:09:15;103813.53;;;7.32;94.71
71907;BME280;59781;52.090;5.030;2023-02-12T06:11:41;103805.78;;;7.26;95.03
71907;BME280;59781;52.090;5.030;2023-02-12T06:14:11;103821.25;;;7.21;95.59
71907;BME280;59781;52.090;5.030;2023-02-12T06:16:39;103817.97;;;7.14;96.04
71907;BME280;59781;52.090;5.030;2023-02-12T06:19:05;103815.31;;;7.14;95.73
71907;BME280;59781;52.090;5.030;2023-02-12T06:21:32;103815.50;;;7.29;94.67
71907;BME280;59781;52.090;5.030;2023-02-12T06:23:58;103821.72;;;7.29;93.95
71907;BME280;59781;52.090;5.030;2023-02-12T06:26:25;103817.38;;;7.27;94.85
71907;BME280;59781;52.090;5.030;2023-02-12T06:28:51;103817.25;;;7.30;95.40
71907;BME280;59781;52.090;5.030;2023-02-12T06:31:26;103810.81;;;7.15;95.36
71907;BME280;59781;52.090;5.030;2023-02-12T06:33:56;103819.63;;;7.17;95.97
71907;BME280;59781;52.090;5.030;2023-02-12T06:36:24;103815.63;;;7.08;96.22
71907;BME280;59781;52.090;5.030;2023-02-12T06:38:50;103812.66;;;7.32;95.04
71907;BME280;59781;52.090;5.030;2023-02-12T06:41:16;103815.03;;;7.55;92.67
71907;BME280;59781;52.090;5.030;2023-02-12T06:43:42;103810.38;;;7.41;92.55
71907;BME280;59781;52.090;5.030;2023-02-12T06:46:08;103815.66;;;7.43;93.76
71907;BME280;59781;52.090;5.030;2023-02-12T06:48:35;103824.00;;;7.19;95.36
71907;BME280;59781;52.090;5.030;2023-02-12T06:51:15;103826.94;;;7.32;95.37
71907;BME280;59781;52.090;5.030;2023-02-12T06:53:43;103822.19;;;7.37;94.94
71907;BME280;59781;52.090;5.030;2023-02-12T06:56:11;103826.34;;;7.26;95.12
71907;BME280;59781;52.090;5.030;2023-02-12T06:58:40;103830.50;;;7.14;96.37
71907;BME280;59781;52.090;5.030;2023-02-12T07:03:40;103824.28;;;7.13;96.71
71907;BME280;59781;52.090;5.030;2023-02-12T07:06:07;103830.81;;;7.08;96.98
71907;BME280;59781;52.090;5.030;2023-02-12T07:08:34;103829.34;;;7.19;96.38
71907;BME280;59781;52.090;5.030;2023-02-12T07:11:00;103832.16;;;7.16;96.38
71907;BME280;59781;52.090;5.030;2023-02-12T07:13:25;103829.28;;;7.21;96.55
71907;BME280;59781;52.090;5.030;2023-02-12T07:15:51;103836.78;;;7.32;94.69
71907;BME280;59781;52.090;5.030;2023-02-12T07:18:17;103845.38;;;7.21;94.58
71907;BME280;59781;52.090;5.030;2023-02-12T07:20:43;103844.25;;;7.25;95.94
71907;BME280;59781;52.090;5.030;2023-02-12T07:23:12;103833.72;;;7.39;92.98
71907;BME280;59781;52.090;5.030;2023-02-12T07:25:38;103841.28;;;7.66;91.71
71907;BME280;59781;52.090;5.030;2023-02-12T07:28:04;103848.78;;;8.11;89.21
71907;BME280;59781;52.090;5.030;2023-02-12T07:30:29;103853.50;;;8.41;87.03
71907;BME280;59781;52.090;5.030;2023-02-12T07:32:55;103852.25;;;8.13;87.73
71907;BME280;59781;52.090;5.030;2023-02-12T07:35:21;103854.41;;;8.07;88.86
71907;BME280;59781;52.090;5.030;2023-02-12T07:37:46;103855.88;;;8.12;88.88
71907;BME280;59781;52.090;5.030;2023-02-12T07:40:12;103859.25;;;8.16;89.87
71907;BME280;59781;52.090;5.030;2023-02-12T07:42:38;103866.66;;;7.78;89.92
71907;BME280;59781;52.090;5.030;2023-02-12T07:45:05;103860.16;;;7.82;91.12
71907;BME280;59781;52.090;5.030;2023-02-12T07:47:31;103860.25;;;7.63;91.74
71907;BME280;59781;52.090;5.030;2023-02-12T07:49:57;103866.31;;;7.49;93.15
71907;BME280;59781;52.090;5.030;2023-02-12T07:52:23;103869.88;;;8.01;90.79
71907;BME280;59781;52.090;5.030;2023-02-12T07:54:49;103864.56;;;7.65;91.12
71907;BME280;59781;52.090;5.030;2023-02-12T07:57:14;103864.13;;;7.57;91.87
71907;BME280;59781;52.090;5.030;2023-02-12T07:59:40;103873.63;;;7.45;92.46
71907;BME280;59781;52.090;5.030;2023-02-12T08:02:06;103878.31;;;7.59;92.28
71907;BME280;59781;52.090;5.030;2023-02-12T08:04:31;103874.72;;;7.41;93.03
71907;BME280;59781;52.090;5.030;2023-02-12T08:06:57;103876.81;;;7.71;92.36
71907;BME280;59781;52.090;5.030;2023-02-12T08:09:25;103869.63;;;7.54;93.90
71907;BME280;59781;52.090;5.030;2023-02-12T08:11:52;103873.09;;;7.56;94.14
71907;BME280;59781;52.090;5.030;2023-02-12T08:14:20;103877.38;;;7.60;94.77
71907;BME280;59781;52.090;5.030;2023-02-12T08:16:48;103881.75;;;7.44;94.62
71907;BME280;59781;52.090;5.030;2023-02-12T08:19:15;103886.03;;;7.65;92.47
71907;BME280;59781;52.090;5.030;2023-02-12T08:21:41;103880.03;;;7.60;91.44
71907;BME280;59781;52.090;5.030;2023-02-12T08:24:08;103881.47;;;7.67;90.39
71907;BME280;59781;52.090;5.030;2023-02-12T08:26:37;103886.66;;;7.17;92.79
71907;BME280;59781;52.090;5.030;2023-02-12T08:29:06;103894.69;;;7.53;92.94
71907;BME280;59781;52.090;5.030;2023-02-12T08:31:40;103891.34;;;7.31;92.99
71907;BME280;59781;52.090;5.030;2023-02-12T08:36:42;103899.38;;;8.01;89.63
71907;BME280;59781;52.090;5.030;2023-02-12T08:39:09;103899.00;;;7.92;89.90
71907;BME280;59781;52.090;5.030;2023-02-12T08:41:36;103897.66;;;8.00;88.99
71907;BME280;59781;52.090;5.030;2023-02-12T08:44:03;103900.94;;;7.54;90.63
71907;BME280;59781;52.090;5.030;2023-02-12T08:46:35;103911.03;;;7.66;90.45
71907;BME280;59781;52.090;5.030;2023-02-12T08:49:05;103909.59;;;7.41;91.63
71907;BME280;59781;52.090;5.030;2023-02-12T08:51:41;103914.22;;;7.74;90.89
71907;BME280;59781;52.090;5.030;2023-02-12T08:54:14;103903.97;;;7.99;89.03
71907;BME280;59781;52.090;5.030;2023-02-12T08:56:45;103909.31;;;7.65;90.74
71907;BME280;59781;52.090;5.030;2023-02-12T08:59:12;103911.91;;;7.66;91.15
71907;BME280;59781;52.090;5.030;2023-02-12T09:01:40;103920.84;;;7.84;89.24
71907;BME280;59781;52.090;5.030;2023-02-12T09:04:11;103913.84;;;7.99;88.55
71907;BME280;59781;52.090;5.030;2023-02-12T09:06:39;103918.91;;;7.88;89.18
71907;BME280;59781;52.090;5.030;2023-02-12T09:09:05;103917.06;;;8.23;88.43
71907;BME280;59781;52.090;5.030;2023-02-12T09:11:33;103911.88;;;8.37;86.86
71907;BME280;59781;52.090;5.030;2023-02-12T09:14:02;103916.03;;;8.25;86.99
71907;BME280;59781;52.090;5.030;2023-02-12T09:16:33;103923.22;;;8.42;86.28
71907;BME280;59781;52.090;5.030;2023-02-12T09:19:00;103928.97;;;7.83;88.99
71907;BME280;59781;52.090;5.030;2023-02-12T09:21:27;103921.72;;;7.85;89.88
71907;BME280;59781;52.090;5.030;2023-02-12T09:23:53;103923.28;;;8.23;88.08
71907;BME280;59781;52.090;5.030;2023-02-12T09:26:22;103918.25;;;8.34;86.70
71907;BME280;59781;52.090;5.030;2023-02-12T09:28:53;103919.06;;;8.37;87.52
71907;BME280;59781;52.090;5.030;2023-02-12T09:31:22;103922.25;;;8.60;86.74
71907;BME280;59781;52.090;5.030;2023-02-12T09:33:52;103918.69;;;8.25;87.31
71907;BME280;59781;52.090;5.030;2023-02-12T09:36:29;103920.78;;;8.20;87.30
71907;BME280;59781;52.090;5.030;2023-02-12T09:38:56;103919.81;;;8.21;86.42
71907;BME280;59781;52.090;5.030;2023-02-12T09:44:28;103915.41;;;8.71;84.44
71907;BME280;59781;52.090;5.030;2023-02-12T09:47:32;103924.41;;;8.19;86.09
71907;BME280;59781;52.090;5.030;2023-02-12T09:51:03;103926.69;;;7.92;87.28
71907;BME280;59781;52.090;5.030;2023-02-12T09:53:20;103925.97;;;8.23;86.24
71907;BME280;59781;52.090;5.030;2023-02-12T09:55:48;103922.59;;;8.02;87.14
71907;BME280;59781;52.090;5.030;2023-02-12T09:58:23;103919.44;;;7.94;87.26
71907;BME280;59781;52.090;5.030;2023-02-12T10:00:57;103923.06;;;8.11;86.34
71907;BME280;59781;52.090;5.030;2023-02-12T10:03:29;103920.09;;;8.17;86.34
71907;BME280;59781;52.090;5.030;2023-02-12T10:06:04;103917.84;;;8.42;86.05
71907;BME280;59781;52.090;5.030;2023-02-12T10:08:52;103926.22;;;8.19;87.54
71907;BME280;59781;52.090;5.030;2023-02-12T10:26:36;103923.00;;;9.11;85.13
71907;BME280;59781;52.090;5.030;2023-02-12T10:29:15;103926.00;;;8.74;85.31
71907;BME280;59781;52.090;5.030;2023-02-12T10:31:49;103927.16;;;8.85;85.10
71907;BME280;59781;52.090;5.030;2023-02-12T10:34:23;103930.28;;;8.94;84.68
71907;BME280;59781;52.090;5.030;2023-02-12T10:39:57;103924.63;;;8.32;86.94
71907;BME280;59781;52.090;5.030;2023-02-12T10:45:02;103922.44;;;8.73;87.12
71907;BME280;59781;52.090;5.030;2023-02-12T10:47:28;103925.56;;;9.14;83.48
71907;BME280;59781;52.090;5.030;2023-02-12T10:50:00;103919.69;;;8.90;83.57
71907;BME280;59781;52.090;5.030;2023-02-12T10:53:02;103921.00;;;8.33;87.08
71907;BME280;59781;52.090;5.030;2023-02-12T10:55:29;103921.34;;;8.27;86.63
71907;BME280;59781;52.090;5.030;2023-02-12T10:57:58;103922.78;;;8.17;86.96
71907;BME280;59781;52.090;5.030;2023-02-12T11:00:28;103923.78;;;7.97;90.19
71907;BME280;59781;52.090;5.030;2023-02-12T11:05:37;103923.13;;;8.61;86.30
71907;BME280;59781;52.090;5.030;2023-02-12T11:08:05;103921.69;;;8.54;84.84
71907;BME280;59781;52.090;5.030;2023-02-12T11:10:37;103914.38;;;8.23;85.29
71907;BME280;59781;52.090;5.030;2023-02-12T11:13:05;103915.94;;;8.44;85.81
71907;BME280;59781;52.090;5.030;2023-02-12T11:15:49;103918.69;;;8.25;86.19
71907;BME280;59781;52.090;5.030;2023-02-12T11:18:28;103916.75;;;7.94;87.63
71907;BME280;59781;52.090;5.030;2023-02-12T11:21:10;103911.00;;;8.02;87.57
71907;BME280;59781;52.090;5.030;2023-02-12T11:23:42;103912.88;;;8.85;83.81
71907;BME280;59781;52.090;5.030;2023-02-12T11:29:00;103912.50;;;8.75;83.11
71907;BME280;59781;52.090;5.030;2023-02-12T11:31:41;103915.91;;;9.10;82.65
71907;BME280;59781;52.090;5.030;2023-02-12T11:36:47;103918.25;;;9.16;81.44
71907;BME280;59781;52.090;5.030;2023-02-12T11:39:34;103913.44;;;8.74;82.94
71907;BME280;59781;52.090;5.030;2023-02-12T11:42:06;103905.94;;;9.28;81.78
71907;BME280;59781;52.090;5.030;2023-02-12T11:44:51;103908.81;;;9.71;79.22
71907;BME280;59781;52.090;5.030;2023-02-12T11:47:27;103911.22;;;9.14;81.74
71907;BME280;59781;52.090;5.030;2023-02-12T11:52:58;103903.97;;;9.62;80.30
71907;BME280;59781;52.090;5.030;2023-02-12T11:55:30;103905.91;;;9.90;78.84
71907;BME280;59781;52.090;5.030;2023-02-12T12:00:44;103898.19;;;9.38;80.35
71907;BME280;59781;52.090;5.030;2023-02-12T12:03:33;103900.28;;;9.01;81.86
71907;BME280;59781;52.090;5.030;2023-02-12T12:06:16;103897.50;;;9.03;82.88
71907;BME280;59781;52.090;5.030;2023-02-12T12:08:47;103898.03;;;8.94;83.19
71907;BME280;59781;52.090;5.030;2023-02-12T12:11:33;103893.78;;;9.37;81.25
71907;BME280;59781;52.090;5.030;2023-02-12T12:14:23;103897.25;;;8.43;85.71
71907;BME280;59781;52.090;5.030;2023-02-12T12:20:12;103893.03;;;9.65;81.02
71907;BME280;59781;52.090;5.030;2023-02-12T12:22:53;103886.19;;;9.59;81.03
71907;BME280;59781;52.090;5.030;2023-02-12T12:29:43;103887.16;;;9.42;80.72
71907;BME280;59781;52.090;5.030;2023-02-12T12:31:58;103873.91;;;9.24;81.64
71907;BME280;59781;52.090;5.030;2023-02-12T12:34:28;103881.22;;;9.06;83.84
71907;BME280;59781;52.090;5.030;2023-02-12T12:37:16;103876.00;;;8.87;83.84
71907;BME280;59781;52.090;5.030;2023-02-12T12:40:20;103878.88;;;9.00;84.23
71907;BME280;59781;52.090;5.030;2023-02-12T12:46:00;103864.44;;;9.32;83.05
71907;BME280;59781;52.090;5.030;2023-02-12T12:52:25;103876.88;;;8.87;83.31
71907;BME280;59781;52.090;5.030;2023-02-12T12:58:09;103861.06;;;9.29;83.55
71907;BME280;59781;52.090;5.030;2023-02-12T13:04:11;103852.13;;;9.28;82.94
71907;BME280;59781;52.090;5.030;2023-02-12T13:07:16;103847.28;;;9.03;82.68
71907;BME280;59781;52.090;5.030;2023-02-12T13:10:09;103853.47;;;8.89;84.13
71907;BME280;59781;52.090;5.030;2023-02-12T13:16:14;103846.75;;;9.28;81.46
71907;BME280;59781;52.090;5.030;2023-02-12T13:19:04;103847.63;;;9.29;82.82
71907;BME280;59781;52.090;5.030;2023-02-12T13:27:07;103844.59;;;9.19;80.77
71907;BME280;59781;52.090;5.030;2023-02-12T13:29:58;103843.50;;;9.53;79.41
71907;BME280;59781;52.090;5.030;2023-02-12T13:32:41;103836.88;;;9.59;79.98
71907;BME280;59781;52.090;5.030;2023-02-12T13:35:17;103841.38;;;9.44;79.90
71907;BME280;59781;52.090;5.030;2023-02-12T13:37:49;103836.81;;;9.14;81.89
71907;BME280;59781;52.090;5.030;2023-02-12T13:40:26;103839.22;;;9.03;82.94
71907;BME280;59781;52.090;5.030;2023-02-12T13:49:55;103832.31;;;9.15;82.47
71907;BME280;59781;52.090;5.030;2023-02-12T13:55:25;103831.88;;;9.07;83.96
71907;BME280;59781;52.090;5.030;2023-02-12T14:00:58;103826.69;;;8.88;84.25
71907;BME280;59781;52.090;5.030;2023-02-12T14:03:30;103830.56;;;8.98;83.54
71907;BME280;59781;52.090;5.030;2023-02-12T14:06:14;103829.25;;;9.21;82.17
71907;BME280;59781;52.090;5.030;2023-02-12T14:09:09;103818.38;;;9.38;82.68
71907;BME280;59781;52.090;5.030;2023-02-12T14:11:49;103820.75;;;10.03;78.62
71907;BME280;59781;52.090;5.030;2023-02-12T14:14:28;103813.03;;;9.53;80.87
71907;BME280;59781;52.090;5.030;2023-02-12T14:19:53;103813.72;;;9.26;80.67
71907;BME280;59781;52.090;5.030;2023-02-12T14:27:52;103801.78;;;9.16;81.46
71907;BME280;59781;52.090;5.030;2023-02-12T14:35:39;103795.91;;;9.54;79.49
71907;BME280;59781;52.090;5.030;2023-02-12T14:40:46;103804.59;;;9.29;78.17
71907;BME280;59781;52.090;5.030;2023-02-12T14:45:55;103790.47;;;9.25;80.05
71907;BME280;59781;52.090;5.030;2023-02-12T14:51:42;103792.00;;;10.03;75.12
71907;BME280;59781;52.090;5.030;2023-02-12T14:54:26;103794.00;;;10.00;74.96
71907;BME280;59781;52.090;5.030;2023-02-12T14:57:03;103795.66;;;9.58;77.08
71907;BME280;59781;52.090;5.030;2023-02-12T14:59:39;103790.06;;;9.47;77.93
71907;BME280;59781;52.090;5.030;2023-02-12T15:02:18;103785.91;;;9.41;77.73
71907;BME280;59781;52.090;5.030;2023-02-12T15:04:57;103783.16;;;10.16;73.41
71907;BME280;59781;52.090;5.030;2023-02-12T15:07:32;103790.06;;;9.47;76.41
71907;BME280;59781;52.090;5.030;2023-02-12T15:10:21;103791.66;;;9.65;74.74
71907;BME280;59781;52.090;5.030;2023-02-12T15:13:27;103784.34;;;9.82;73.38
71907;BME280;59781;52.090;5.030;2023-02-12T15:21:26;103795.56;;;10.04;72.20
71907;BME280;59781;52.090;5.030;2023-02-12T15:26:39;103779.41;;;10.04;70.54
71907;BME280;59781;52.090;5.030;2023-02-12T15:29:41;103781.69;;;8.60;76.29
71907;BME280;59781;52.090;5.030;2023-02-12T15:32:24;103782.28;;;8.65;75.73
71907;BME280;59781;52.090;5.030;2023-02-12T15:34:54;103783.56;;;9.05;75.08
71907;BME280;59781;52.090;5.030;2023-02-12T15:37:27;103786.09;;;8.61;77.27
71907;BME280;59781;52.090;5.030;2023-02-12T15:40:00;103778.91;;;8.77;75.07
71907;BME280;59781;52.090;5.030;2023-02-12T15:42:36;103783.53;;;8.75;75.21
71907;BME280;59781;52.090;5.030;2023-02-12T15:47:44;103778.56;;;8.52;74.71
71907;BME280;59781;52.090;5.030;2023-02-12T15:50:18;103784.91;;;8.67;74.78
71907;BME280;59781;52.090;5.030;2023-02-12T15:52:48;103780.72;;;8.93;73.40
71907;BME280;59781;52.090;5.030;2023-02-12T15:55:27;103787.13;;;8.74;74.78
71907;BME280;59781;52.090;5.030;2023-02-12T15:58:00;103783.59;;;8.89;73.94
71907;BME280;59781;52.090;5.030;2023-02-12T16:00:40;103789.53;;;9.10;73.63
71907;BME280;59781;52.090;5.030;2023-02-12T16:03:19;103786.50;;;9.16;73.12
71907;BME280;59781;52.090;5.030;2023-02-12T16:05:51;103783.28;;;9.26;72.61